sensor_id;sensor_type;location;lat;lon;timestamp;P1;durP1;ratioP1;P2;durP2;ratioP2
53281;SDS011;39167;52.794;6.892;2022-11-27T00:01:54;22.77;;;7.55;;
53281;SDS011;39167;52.794;6.892;2022-11-27T00:04:20;20.33;;;7.78;;
53281;SDS011;39167;52.794;6.892;2022-11-27T00:06:46;21.50;;;7.28;;
53281;SDS011;39167;52.794;6.892;2022-11-27T00:09:13;16.23;;;7.00;;
53281;SDS011;39167;52.794;6.892;2022-11-27T00:11:40;19.85;;;7.80;;
53281;SDS011;39167;52.794;6.892;2022-11-27T00:14:08;22.55;;;8.00;;
53281;SDS011;39167;52.794;6.892;2022-11-27T00:16:36;23.13;;;8.15;;
53281;SDS011;39167;52.794;6.892;2022-11-27T00:19:02;21.85;;;7.50;;
53281;SDS011;39167;52.794;6.892;2022-11-27T00:21:28;21.45;;;8.13;;
53281;SDS011;39167;52.794;6.892;2022-11-27T00:23:59;19.17;;;7.30;;
53281;SDS011;39167;52.794;6.892;2022-11-27T00:26:27;22.40;;;7.75;;
53281;SDS011;39167;52.794;6.892;2022-11-27T00:28:54;18.02;;;7.40;;
53281;SDS011;39167;52.794;6.892;2022-11-27T00:31:21;20.58;;;9.10;;
53281;SDS011;39167;52.794;6.892;2022-11-27T00:33:52;19.63;;;8.43;;
53281;SDS011;39167;52.794;6.892;2022-11-27T00:36:22;19.55;;;8.60;;
53281;SDS011;39167;52.794;6.892;2022-11-27T00:38:48;26.73;;;8.20;;
53281;SDS011;39167;52.794;6.892;2022-11-27T00:41:14;17.95;;;7.78;;
53281;SDS011;39167;52.794;6.892;2022-11-27T00:43:42;22.02;;;8.30;;
53281;SDS011;39167;52.794;6.892;2022-11-27T00:46:08;23.27;;;8.13;;
53281;SDS011;39167;52.794;6.892;2022-11-27T00:48:34;18.40;;;7.20;;
53281;SDS011;39167;52.794;6.892;2022-11-27T00:51:01;17.30;;;6.95;;
53281;SDS011;39167;52.794;6.892;2022-11-27T00:53:28;17.52;;;6.82;;
53281;SDS011;39167;52.794;6.892;2022-11-27T00:55:55;22.42;;;7.65;;
53281;SDS011;39167;52.794;6.892;2022-11-27T00:58:21;21.33;;;6.82;;
53281;SDS011;39167;52.794;6.892;2022-11-27T01:00:54;21.58;;;7.53;;
53281;SDS011;39167;52.794;6.892;2022-11-27T01:03:24;20.50;;;7.32;;
53281;SDS011;39167;52.794;6.892;2022-11-27T01:05:51;16.48;;;7.05;;
53281;SDS011;39167;52.794;6.892;2022-11-27T01:08:17;24.25;;;7.68;;
53281;SDS011;39167;52.794;6.892;2022-11-27T01:10:48;18.45;;;7.05;;
53281;SDS011;39167;52.794;6.892;2022-11-27T01:13:18;15.77;;;7.28;;
53281;SDS011;39167;52.794;6.892;2022-11-27T01:15:56;15.95;;;7.10;;
53281;SDS011;39167;52.794;6.892;2022-11-27T01:18:33;18.25;;;7.10;;
53281;SDS011;39167;52.794;6.892;2022-11-27T01:21:00;19.40;;;6.70;;
53281;SDS011;39167;52.794;6.892;2022-11-27T01:23:27;19.38;;;7.82;;
53281;SDS011;39167;52.794;6.892;2022-11-27T01:25:53;20.63;;;7.18;;
53281;SDS011;39167;52.794;6.892;2022-11-27T01:28:19;15.65;;;6.70;;
53281;SDS011;39167;52.794;6.892;2022-11-27T01:30:46;18.80;;;6.70;;
53281;SDS011;39167;52.794;6.892;2022-11-27T01:33:12;20.23;;;6.82;;
53281;SDS011;39167;52.794;6.892;2022-11-27T01:35:38;14.90;;;6.72;;
53281;SDS011;39167;52.794;6.892;2022-11-27T01:38:03;23.50;;;7.82;;
53281;SDS011;39167;52.794;6.892;2022-11-27T01:40:29;22.58;;;7.35;;
53281;SDS011;39167;52.794;6.892;2022-11-27T01:42:55;15.90;;;6.45;;
53281;SDS011;39167;52.794;6.892;2022-11-27T01:45:20;15.48;;;7.30;;
53281;SDS011;39167;52.794;6.892;2022-11-27T01:47:47;17.55;;;6.95;;
53281;SDS011;39167;52.794;6.892;2022-11-27T01:50:28;20.00;;;7.25;;
53281;SDS011;39167;52.794;6.892;2022-11-27T01:52:59;18.45;;;7.47;;
53281;SDS011;39167;52.794;6.892;2022-11-27T01:55:33;20.77;;;7.68;;
53281;SDS011;39167;52.794;6.892;2022-11-27T01:58:06;15.23;;;6.75;;
53281;SDS011;39167;52.794;6.892;2022-11-27T02:00:44;17.27;;;7.00;;
53281;SDS011;39167;52.794;6.892;2022-11-27T02:03:10;22.10;;;7.13;;
53281;SDS011;39167;52.794;6.892;2022-11-27T02:05:36;16.42;;;6.13;;
53281;SDS011;39167;52.794;6.892;2022-11-27T02:08:02;16.67;;;6.72;;
53281;SDS011;39167;52.794;6.892;2022-11-27T02:11:33;16.55;;;6.53;;
53281;SDS011;39167;52.794;6.892;2022-11-27T02:16:36;17.83;;;7.38;;
53281;SDS011;39167;52.794;6.892;2022-11-27T02:19:26;21.83;;;6.50;;
53281;SDS011;39167;52.794;6.892;2022-11-27T02:22:23;18.98;;;6.63;;
53281;SDS011;39167;52.794;6.892;2022-11-27T02:25:02;19.63;;;6.68;;
53281;SDS011;39167;52.794;6.892;2022-11-27T02:30:30;18.83;;;7.10;;
53281;SDS011;39167;52.794;6.892;2022-11-27T02:33:02;21.58;;;6.60;;
53281;SDS011;39167;52.794;6.892;2022-11-27T02:35:45;20.67;;;6.78;;
53281;SDS011;39167;52.794;6.892;2022-11-27T02:38:16;16.63;;;7.13;;
53281;SDS011;39167;52.794;6.892;2022-11-27T02:43:47;13.45;;;7.25;;
53281;SDS011;39167;52.794;6.892;2022-11-27T02:46:14;15.23;;;6.57;;
53281;SDS011;39167;52.794;6.892;2022-11-27T02:48:44;16.63;;;7.35;;
53281;SDS011;39167;52.794;6.892;2022-11-27T02:51:17;15.93;;;6.75;;
53281;SDS011;39167;52.794;6.892;2022-11-27T02:53:48;15.55;;;7.30;;
53281;SDS011;39167;52.794;6.892;2022-11-27T02:56:21;15.50;;;6.85;;
53281;SDS011;39167;52.794;6.892;2022-11-27T02:58:50;18.20;;;6.75;;
53281;SDS011;39167;52.794;6.892;2022-11-27T03:01:19;13.60;;;5.88;;
53281;SDS011;39167;52.794;6.892;2022-11-27T03:03:48;15.05;;;6.43;;
53281;SDS011;39167;52.794;6.892;2022-11-27T03:06:21;17.80;;;6.88;;
53281;SDS011;39167;52.794;6.892;2022-11-27T03:08:57;16.02;;;5.70;;
53281;SDS011;39167;52.794;6.892;2022-11-27T03:11:29;16.17;;;6.35;;
53281;SDS011;39167;52.794;6.892;2022-11-27T03:13:56;12.93;;;6.20;;
53281;SDS011;39167;52.794;6.892;2022-11-27T03:21:40;22.25;;;6.43;;
53281;SDS011;39167;52.794;6.892;2022-11-27T03:24:10;16.80;;;6.55;;
53281;SDS011;39167;52.794;6.892;2022-11-27T03:26:36;16.08;;;6.50;;
53281;SDS011;39167;52.794;6.892;2022-11-27T03:29:08;17.55;;;6.13;;
53281;SDS011;39167;52.794;6.892;2022-11-27T03:31:39;23.08;;;6.65;;
53281;SDS011;39167;52.794;6.892;2022-11-27T03:34:05;19.13;;;5.88;;
53281;SDS011;39167;52.794;6.892;2022-11-27T03:36:32;16.67;;;6.05;;
53281;SDS011;39167;52.794;6.892;2022-11-27T03:38:57;16.77;;;7.05;;
53281;SDS011;39167;52.794;6.892;2022-11-27T03:41:26;13.43;;;5.55;;
53281;SDS011;39167;52.794;6.892;2022-11-27T03:44:21;13.13;;;5.45;;
53281;SDS011;39167;52.794;6.892;2022-11-27T03:47:09;14.93;;;5.78;;
53281;SDS011;39167;52.794;6.892;2022-11-27T03:52:07;16.42;;;5.55;;
53281;SDS011;39167;52.794;6.892;2022-11-27T03:57:52;18.75;;;6.30;;
53281;SDS011;39167;52.794;6.892;2022-11-27T04:00:20;14.60;;;5.78;;
53281;SDS011;39167;52.794;6.892;2022-11-27T04:02:51;16.88;;;6.10;;
53281;SDS011;39167;52.794;6.892;2022-11-27T04:05:17;19.05;;;5.80;;
53281;SDS011;39167;52.794;6.892;2022-11-27T04:07:44;14.05;;;5.07;;
53281;SDS011;39167;52.794;6.892;2022-11-27T04:10:10;12.43;;;5.25;;
53281;SDS011;39167;52.794;6.892;2022-11-27T04:12:36;17.92;;;5.28;;
53281;SDS011;39167;52.794;6.892;2022-11-27T04:15:03;11.90;;;5.28;;
53281;SDS011;39167;52.794;6.892;2022-11-27T04:17:30;18.95;;;5.55;;
53281;SDS011;39167;52.794;6.892;2022-11-27T04:19:56;17.50;;;5.75;;
53281;SDS011;39167;52.794;6.892;2022-11-27T04:22:22;13.85;;;5.32;;
53281;SDS011;39167;52.794;6.892;2022-11-27T04:24:47;14.55;;;5.18;;
53281;SDS011;39167;52.794;6.892;2022-11-27T04:27:13;12.90;;;5.30;;
53281;SDS011;39167;52.794;6.892;2022-11-27T04:29:39;15.02;;;5.22;;
53281;SDS011;39167;52.794;6.892;2022-11-27T04:32:04;12.43;;;5.28;;
53281;SDS011;39167;52.794;6.892;2022-11-27T04:34:30;15.82;;;5.60;;
53281;SDS011;39167;52.794;6.892;2022-11-27T04:36:57;16.25;;;5.80;;
53281;SDS011;39167;52.794;6.892;2022-11-27T04:39:22;12.65;;;5.32;;
53281;SDS011;39167;52.794;6.892;2022-11-27T04:41:48;15.13;;;5.13;;
53281;SDS011;39167;52.794;6.892;2022-11-27T04:44:14;11.80;;;5.25;;
53281;SDS011;39167;52.794;6.892;2022-11-27T04:46:39;16.48;;;5.25;;
53281;SDS011;39167;52.794;6.892;2022-11-27T04:49:05;10.90;;;5.18;;
53281;SDS011;39167;52.794;6.892;2022-11-27T04:51:31;18.48;;;5.43;;
53281;SDS011;39167;52.794;6.892;2022-11-27T04:53:57;13.68;;;5.15;;
53281;SDS011;39167;52.794;6.892;2022-11-27T04:56:23;16.83;;;5.22;;
53281;SDS011;39167;52.794;6.892;2022-11-27T04:58:48;15.40;;;5.55;;
53281;SDS011;39167;52.794;6.892;2022-11-27T05:01:14;17.02;;;5.65;;
53281;SDS011;39167;52.794;6.892;2022-11-27T05:03:40;14.40;;;5.47;;
53281;SDS011;39167;52.794;6.892;2022-11-27T05:06:06;13.30;;;4.88;;
53281;SDS011;39167;52.794;6.892;2022-11-27T05:08:32;14.48;;;5.22;;
53281;SDS011;39167;52.794;6.892;2022-11-27T05:11:02;17.73;;;5.43;;
53281;SDS011;39167;52.794;6.892;2022-11-27T05:13:30;14.20;;;4.45;;
53281;SDS011;39167;52.794;6.892;2022-11-27T05:15:56;11.27;;;4.22;;
53281;SDS011;39167;52.794;6.892;2022-11-27T05:18:22;11.85;;;4.70;;
53281;SDS011;39167;52.794;6.892;2022-11-27T05:20:54;17.70;;;5.90;;
53281;SDS011;39167;52.794;6.892;2022-11-27T05:23:23;14.82;;;4.93;;
53281;SDS011;39167;52.794;6.892;2022-11-27T05:25:50;15.02;;;4.43;;
53281;SDS011;39167;52.794;6.892;2022-11-27T05:28:16;10.95;;;4.63;;
53281;SDS011;39167;52.794;6.892;2022-11-27T05:30:41;11.48;;;4.57;;
53281;SDS011;39167;52.794;6.892;2022-11-27T05:33:07;16.40;;;5.07;;
53281;SDS011;39167;52.794;6.892;2022-11-27T05:35:33;15.73;;;4.85;;
53281;SDS011;39167;52.794;6.892;2022-11-27T05:37:59;13.32;;;5.55;;
53281;SDS011;39167;52.794;6.892;2022-11-27T05:40:24;12.50;;;5.40;;
53281;SDS011;39167;52.794;6.892;2022-11-27T05:42:50;11.95;;;4.80;;
53281;SDS011;39167;52.794;6.892;2022-11-27T05:45:15;11.30;;;4.60;;
53281;SDS011;39167;52.794;6.892;2022-11-27T05:47:41;10.38;;;4.55;;
53281;SDS011;39167;52.794;6.892;2022-11-27T05:50:07;15.63;;;4.85;;
53281;SDS011;39167;52.794;6.892;2022-11-27T05:52:33;14.55;;;4.95;;
53281;SDS011;39167;52.794;6.892;2022-11-27T05:54:58;12.57;;;4.90;;
53281;SDS011;39167;52.794;6.892;2022-11-27T05:57:24;12.95;;;4.75;;
53281;SDS011;39167;52.794;6.892;2022-11-27T05:59:50;13.45;;;5.40;;
53281;SDS011;39167;52.794;6.892;2022-11-27T06:02:16;13.30;;;5.18;;
53281;SDS011;39167;52.794;6.892;2022-11-27T06:04:41;15.38;;;5.85;;
53281;SDS011;39167;52.794;6.892;2022-11-27T06:07:07;14.30;;;6.30;;
53281;SDS011;39167;52.794;6.892;2022-11-27T06:09:33;14.82;;;5.75;;
53281;SDS011;39167;52.794;6.892;2022-11-27T06:12:01;13.38;;;5.50;;
53281;SDS011;39167;52.794;6.892;2022-11-27T06:14:26;15.07;;;5.75;;
53281;SDS011;39167;52.794;6.892;2022-11-27T06:16:52;11.80;;;6.50;;
53281;SDS011;39167;52.794;6.892;2022-11-27T06:19:18;16.98;;;6.45;;
53281;SDS011;39167;52.794;6.892;2022-11-27T06:21:43;11.88;;;5.63;;
53281;SDS011;39167;52.794;6.892;2022-11-27T06:24:10;14.15;;;6.07;;
53281;SDS011;39167;52.794;6.892;2022-11-27T06:26:36;14.52;;;5.43;;
53281;SDS011;39167;52.794;6.892;2022-11-27T06:29:02;13.05;;;5.47;;
53281;SDS011;39167;52.794;6.892;2022-11-27T06:31:28;15.75;;;6.32;;
53281;SDS011;39167;52.794;6.892;2022-11-27T06:33:55;13.10;;;5.53;;
53281;SDS011;39167;52.794;6.892;2022-11-27T06:36:22;11.75;;;5.88;;
53281;SDS011;39167;52.794;6.892;2022-11-27T06:38:50;16.17;;;5.95;;
53281;SDS011;39167;52.794;6.892;2022-11-27T06:41:17;13.73;;;5.95;;
53281;SDS011;39167;52.794;6.892;2022-11-27T06:43:44;13.15;;;6.03;;
53281;SDS011;39167;52.794;6.892;2022-11-27T06:46:11;11.00;;;6.28;;
53281;SDS011;39167;52.794;6.892;2022-11-27T06:48:40;15.38;;;6.47;;
53281;SDS011;39167;52.794;6.892;2022-11-27T06:51:06;16.77;;;6.85;;
53281;SDS011;39167;52.794;6.892;2022-11-27T06:53:35;12.35;;;5.78;;
53281;SDS011;39167;52.794;6.892;2022-11-27T06:56:34;14.75;;;5.68;;
53281;SDS011;39167;52.794;6.892;2022-11-27T06:58:55;12.68;;;5.57;;
53281;SDS011;39167;52.794;6.892;2022-11-27T07:01:22;14.02;;;5.85;;
53281;SDS011;39167;52.794;6.892;2022-11-27T07:03:49;17.50;;;6.10;;
53281;SDS011;39167;52.794;6.892;2022-11-27T07:06:17;10.55;;;6.07;;
53281;SDS011;39167;52.794;6.892;2022-11-27T07:08:44;16.98;;;6.78;;
53281;SDS011;39167;52.794;6.892;2022-11-27T07:11:14;13.25;;;6.65;;
53281;SDS011;39167;52.794;6.892;2022-11-27T07:13:45;17.00;;;6.88;;
53281;SDS011;39167;52.794;6.892;2022-11-27T07:16:12;13.40;;;5.95;;
53281;SDS011;39167;52.794;6.892;2022-11-27T07:18:42;12.13;;;5.82;;
53281;SDS011;39167;52.794;6.892;2022-11-27T07:21:09;12.18;;;6.47;;
53281;SDS011;39167;52.794;6.892;2022-11-27T07:23:35;15.65;;;5.95;;
53281;SDS011;39167;52.794;6.892;2022-11-27T07:26:11;10.73;;;5.78;;
53281;SDS011;39167;52.794;6.892;2022-11-27T07:28:38;12.40;;;5.72;;
53281;SDS011;39167;52.794;6.892;2022-11-27T07:31:04;15.20;;;6.70;;
53281;SDS011;39167;52.794;6.892;2022-11-27T07:33:30;15.73;;;6.47;;
53281;SDS011;39167;52.794;6.892;2022-11-27T07:36:00;14.15;;;6.28;;
53281;SDS011;39167;52.794;6.892;2022-11-27T07:38:27;13.57;;;6.63;;
53281;SDS011;39167;52.794;6.892;2022-11-27T07:40:53;13.55;;;6.10;;
53281;SDS011;39167;52.794;6.892;2022-11-27T07:43:19;15.23;;;6.60;;
53281;SDS011;39167;52.794;6.892;2022-11-27T07:45:45;15.02;;;6.88;;
53281;SDS011;39167;52.794;6.892;2022-11-27T07:48:10;17.67;;;6.82;;
53281;SDS011;39167;52.794;6.892;2022-11-27T07:50:37;18.35;;;7.80;;
53281;SDS011;39167;52.794;6.892;2022-11-27T07:53:04;12.27;;;6.00;;
53281;SDS011;39167;52.794;6.892;2022-11-27T07:55:30;12.93;;;5.50;;
53281;SDS011;39167;52.794;6.892;2022-11-27T07:57:55;15.77;;;5.97;;
53281;SDS011;39167;52.794;6.892;2022-11-27T08:00:21;10.80;;;5.57;;
53281;SDS011;39167;52.794;6.892;2022-11-27T08:02:47;13.25;;;6.03;;
53281;SDS011;39167;52.794;6.892;2022-11-27T08:05:12;18.58;;;6.57;;
53281;SDS011;39167;52.794;6.892;2022-11-27T08:07:38;14.20;;;6.40;;
53281;SDS011;39167;52.794;6.892;2022-11-27T08:10:04;12.88;;;6.45;;
53281;SDS011;39167;52.794;6.892;2022-11-27T08:12:31;11.98;;;5.55;;
53281;SDS011;39167;52.794;6.892;2022-11-27T08:14:56;15.20;;;5.70;;
53281;SDS011;39167;52.794;6.892;2022-11-27T08:17:22;14.27;;;6.95;;
53281;SDS011;39167;52.794;6.892;2022-11-27T08:19:48;14.52;;;6.28;;
53281;SDS011;39167;52.794;6.892;2022-11-27T08:22:15;14.07;;;6.65;;
53281;SDS011;39167;52.794;6.892;2022-11-27T08:24:43;14.27;;;5.68;;
53281;SDS011;39167;52.794;6.892;2022-11-27T08:27:10;14.82;;;5.80;;
53281;SDS011;39167;52.794;6.892;2022-11-27T08:29:36;13.18;;;5.72;;
53281;SDS011;39167;52.794;6.892;2022-11-27T08:32:02;11.63;;;6.15;;
53281;SDS011;39167;52.794;6.892;2022-11-27T08:34:28;18.58;;;6.97;;
53281;SDS011;39167;52.794;6.892;2022-11-27T08:36:54;14.10;;;6.57;;
53281;SDS011;39167;52.794;6.892;2022-11-27T08:39:20;10.63;;;6.20;;
53281;SDS011;39167;52.794;6.892;2022-11-27T08:41:45;13.63;;;6.47;;
53281;SDS011;39167;52.794;6.892;2022-11-27T08:44:11;16.88;;;6.47;;
53281;SDS011;39167;52.794;6.892;2022-11-27T08:46:37;13.65;;;6.75;;
53281;SDS011;39167;52.794;6.892;2022-11-27T08:49:03;11.88;;;6.07;;
53281;SDS011;39167;52.794;6.892;2022-11-27T08:51:28;13.98;;;6.50;;
53281;SDS011;39167;52.794;6.892;2022-11-27T08:53:54;15.30;;;6.00;;
53281;SDS011;39167;52.794;6.892;2022-11-27T08:56:21;17.77;;;6.70;;
53281;SDS011;39167;52.794;6.892;2022-11-27T08:58:48;13.02;;;6.22;;
53281;SDS011;39167;52.794;6.892;2022-11-27T09:01:15;14.68;;;6.38;;
53281;SDS011;39167;52.794;6.892;2022-11-27T09:03:43;13.50;;;6.30;;
53281;SDS011;39167;52.794;6.892;2022-11-27T09:06:10;16.80;;;6.50;;
53281;SDS011;39167;52.794;6.892;2022-11-27T09:08:38;16.13;;;7.47;;
53281;SDS011;39167;52.794;6.892;2022-11-27T09:11:05;15.07;;;6.53;;
53281;SDS011;39167;52.794;6.892;2022-11-27T09:13:32;16.02;;;6.32;;
53281;SDS011;39167;52.794;6.892;2022-11-27T09:16:01;15.05;;;6.13;;
53281;SDS011;39167;52.794;6.892;2022-11-27T09:18:28;13.88;;;6.90;;
53281;SDS011;39167;52.794;6.892;2022-11-27T09:21:01;15.80;;;6.22;;
53281;SDS011;39167;52.794;6.892;2022-11-27T09:23:31;15.63;;;6.70;;
53281;SDS011;39167;52.794;6.892;2022-11-27T09:25:58;16.08;;;7.97;;
53281;SDS011;39167;52.794;6.892;2022-11-27T09:28:24;19.00;;;7.93;;
53281;SDS011;39167;52.794;6.892;2022-11-27T09:30:57;16.90;;;7.13;;
53281;SDS011;39167;52.794;6.892;2022-11-27T09:33:24;16.98;;;7.18;;
53281;SDS011;39167;52.794;6.892;2022-11-27T09:35:51;14.75;;;7.18;;
53281;SDS011;39167;52.794;6.892;2022-11-27T09:38:17;18.27;;;7.88;;
53281;SDS011;39167;52.794;6.892;2022-11-27T09:40:45;17.02;;;9.35;;
53281;SDS011;39167;52.794;6.892;2022-11-27T09:43:13;16.45;;;7.78;;
53281;SDS011;39167;52.794;6.892;2022-11-27T09:45:50;20.05;;;6.40;;
53281;SDS011;39167;52.794;6.892;2022-11-27T09:48:21;13.13;;;6.47;;
53281;SDS011;39167;52.794;6.892;2022-11-27T09:51:18;13.02;;;6.60;;
53281;SDS011;39167;52.794;6.892;2022-11-27T09:56:37;15.20;;;6.32;;
53281;SDS011;39167;52.794;6.892;2022-11-27T09:59:07;12.88;;;6.22;;
53281;SDS011;39167;52.794;6.892;2022-11-27T10:01:40;10.98;;;6.25;;
53281;SDS011;39167;52.794;6.892;2022-11-27T10:04:08;16.40;;;7.13;;
53281;SDS011;39167;52.794;6.892;2022-11-27T10:20:31;17.77;;;7.07;;
53281;SDS011;39167;52.794;6.892;2022-11-27T10:23:09;13.27;;;6.97;;
53281;SDS011;39167;52.794;6.892;2022-11-27T10:26:03;16.88;;;7.22;;
53281;SDS011;39167;52.794;6.892;2022-11-27T10:28:50;18.67;;;7.32;;
53281;SDS011;39167;52.794;6.892;2022-11-27T10:34:19;16.77;;;6.90;;
53281;SDS011;39167;52.794;6.892;2022-11-27T10:36:53;16.02;;;7.07;;
53281;SDS011;39167;52.794;6.892;2022-11-27T10:39:30;15.15;;;7.18;;
53281;SDS011;39167;52.794;6.892;2022-11-27T10:42:09;15.02;;;7.90;;
53281;SDS011;39167;52.794;6.892;2022-11-27T10:44:40;16.40;;;7.93;;
53281;SDS011;39167;52.794;6.892;2022-11-27T10:47:19;16.58;;;7.95;;
53281;SDS011;39167;52.794;6.892;2022-11-27T10:49:48;17.20;;;7.63;;
53281;SDS011;39167;52.794;6.892;2022-11-27T10:52:15;13.82;;;7.10;;
53281;SDS011;39167;52.794;6.892;2022-11-27T10:54:45;17.92;;;7.30;;
53281;SDS011;39167;52.794;6.892;2022-11-27T10:59:54;16.05;;;7.95;;
53281;SDS011;39167;52.794;6.892;2022-11-27T11:02:25;13.68;;;7.97;;
53281;SDS011;39167;52.794;6.892;2022-11-27T11:04:53;17.92;;;7.55;;
53281;SDS011;39167;52.794;6.892;2022-11-27T11:07:28;14.77;;;7.93;;
53281;SDS011;39167;52.794;6.892;2022-11-27T11:09:54;15.40;;;7.72;;
53281;SDS011;39167;52.794;6.892;2022-11-27T11:12:21;16.13;;;7.90;;
53281;SDS011;39167;52.794;6.892;2022-11-27T11:14:55;16.20;;;7.78;;
53281;SDS011;39167;52.794;6.892;2022-11-27T11:17:26;17.42;;;8.52;;
53281;SDS011;39167;52.794;6.892;2022-11-27T11:19:58;18.75;;;7.93;;
53281;SDS011;39167;52.794;6.892;2022-11-27T11:22:24;18.17;;;8.18;;
53281;SDS011;39167;52.794;6.892;2022-11-27T11:24:52;20.63;;;8.98;;
53281;SDS011;39167;52.794;6.892;2022-11-27T11:37:20;16.52;;;8.48;;
53281;SDS011;39167;52.794;6.892;2022-11-27T11:39:59;18.88;;;9.25;;
53281;SDS011;39167;52.794;6.892;2022-11-27T11:45:23;20.65;;;9.45;;
53281;SDS011;39167;52.794;6.892;2022-11-27T11:47:54;16.40;;;8.93;;
53281;SDS011;39167;52.794;6.892;2022-11-27T11:53:12;17.48;;;8.43;;
53281;SDS011;39167;52.794;6.892;2022-11-27T11:58:38;16.63;;;9.00;;
53281;SDS011;39167;52.794;6.892;2022-11-27T12:12:37;16.05;;;8.38;;
53281;SDS011;39167;52.794;6.892;2022-11-27T12:15:28;15.73;;;7.53;;
53281;SDS011;39167;52.794;6.892;2022-11-27T12:18:00;19.13;;;8.32;;
53281;SDS011;39167;52.794;6.892;2022-11-27T12:23:17;17.60;;;8.85;;
53281;SDS011;39167;52.794;6.892;2022-11-27T12:30:07;16.55;;;8.77;;
53281;SDS011;39167;52.794;6.892;2022-11-27T12:32:24;21.73;;;9.73;;
53281;SDS011;39167;52.794;6.892;2022-11-27T12:37:50;22.65;;;9.80;;
53281;SDS011;39167;52.794;6.892;2022-11-27T12:40:45;15.52;;;8.98;;
53281;SDS011;39167;52.794;6.892;2022-11-27T12:45:46;20.30;;;9.85;;
53281;SDS011;39167;52.794;6.892;2022-11-27T12:48:23;21.48;;;10.85;;
53281;SDS011;39167;52.794;6.892;2022-11-27T12:51:07;17.98;;;9.50;;
53281;SDS011;39167;52.794;6.892;2022-11-27T12:53:56;22.00;;;9.35;;
53281;SDS011;39167;52.794;6.892;2022-11-27T13:02:26;17.08;;;8.82;;
53281;SDS011;39167;52.794;6.892;2022-11-27T13:07:40;15.70;;;8.10;;
53281;SDS011;39167;52.794;6.892;2022-11-27T13:13:08;16.75;;;8.98;;
53281;SDS011;39167;52.794;6.892;2022-11-27T13:20:56;22.17;;;9.60;;
53281;SDS011;39167;52.794;6.892;2022-11-27T13:23:29;21.77;;;9.85;;
53281;SDS011;39167;52.794;6.892;2022-11-27T13:25:55;22.23;;;11.15;;
53281;SDS011;39167;52.794;6.892;2022-11-27T13:28:25;18.90;;;9.95;;
53281;SDS011;39167;52.794;6.892;2022-11-27T13:31:02;19.42;;;9.30;;
53281;SDS011;39167;52.794;6.892;2022-11-27T13:38:28;18.75;;;9.75;;
53281;SDS011;39167;52.794;6.892;2022-11-27T13:40:56;17.58;;;8.88;;
53281;SDS011;39167;52.794;6.892;2022-11-27T13:43:34;16.73;;;8.10;;
53281;SDS011;39167;52.794;6.892;2022-11-27T13:46:27;17.20;;;8.50;;
53281;SDS011;39167;52.794;6.892;2022-11-27T13:49:02;14.18;;;7.43;;
53281;SDS011;39167;52.794;6.892;2022-11-27T13:56:54;17.98;;;8.80;;
53281;SDS011;39167;52.794;6.892;2022-11-27T13:59:20;17.77;;;8.20;;
53281;SDS011;39167;52.794;6.892;2022-11-27T14:04:25;16.83;;;8.05;;
53281;SDS011;39167;52.794;6.892;2022-11-27T14:06:56;17.85;;;8.50;;
53281;SDS011;39167;52.794;6.892;2022-11-27T14:09:44;19.80;;;8.23;;
53281;SDS011;39167;52.794;6.892;2022-11-27T14:12:26;21.73;;;9.95;;
53281;SDS011;39167;52.794;6.892;2022-11-27T14:14:56;16.00;;;9.02;;
53281;SDS011;39167;52.794;6.892;2022-11-27T14:17:34;46.53;;;24.67;;
53281;SDS011;39167;52.794;6.892;2022-11-27T14:25:40;15.98;;;8.60;;
53281;SDS011;39167;52.794;6.892;2022-11-27T14:28:16;19.13;;;9.10;;
53281;SDS011;39167;52.794;6.892;2022-11-27T14:30:46;19.27;;;8.98;;
53281;SDS011;39167;52.794;6.892;2022-11-27T14:33:24;16.73;;;9.05;;
53281;SDS011;39167;52.794;6.892;2022-11-27T14:36:01;20.45;;;10.73;;
53281;SDS011;39167;52.794;6.892;2022-11-27T14:38:32;24.13;;;10.63;;
53281;SDS011;39167;52.794;6.892;2022-11-27T14:41:15;23.15;;;12.43;;
53281;SDS011;39167;52.794;6.892;2022-11-27T14:43:42;16.35;;;9.30;;
53281;SDS011;39167;52.794;6.892;2022-11-27T14:46:15;18.73;;;9.45;;
53281;SDS011;39167;52.794;6.892;2022-11-27T14:48:44;21.70;;;10.93;;
53281;SDS011;39167;52.794;6.892;2022-11-27T14:51:19;20.70;;;9.32;;
53281;SDS011;39167;52.794;6.892;2022-11-27T14:53:46;19.65;;;9.38;;
53281;SDS011;39167;52.794;6.892;2022-11-27T14:56:14;14.98;;;8.80;;
53281;SDS011;39167;52.794;6.892;2022-11-27T14:58:47;15.27;;;9.13;;
53281;SDS011;39167;52.794;6.892;2022-11-27T15:01:32;15.52;;;9.55;;
53281;SDS011;39167;52.794;6.892;2022-11-27T15:04:00;16.90;;;8.98;;
53281;SDS011;39167;52.794;6.892;2022-11-27T15:09:01;19.17;;;10.15;;
53281;SDS011;39167;52.794;6.892;2022-11-27T15:11:27;15.07;;;8.68;;
53281;SDS011;39167;52.794;6.892;2022-11-27T15:13:55;15.88;;;8.57;;
53281;SDS011;39167;52.794;6.892;2022-11-27T15:16:24;16.75;;;9.25;;
53281;SDS011;39167;52.794;6.892;2022-11-27T15:18:52;15.65;;;8.85;;
53281;SDS011;39167;52.794;6.892;2022-11-27T15:21:21;16.58;;;8.63;;
53281;SDS011;39167;52.794;6.892;2022-11-27T15:23:52;17.63;;;10.38;;
53281;SDS011;39167;52.794;6.892;2022-11-27T15:29:04;15.13;;;8.43;;
53281;SDS011;39167;52.794;6.892;2022-11-27T15:31:53;16.80;;;8.90;;
53281;SDS011;39167;52.794;6.892;2022-11-27T15:34:20;17.27;;;11.32;;
53281;SDS011;39167;52.794;6.892;2022-11-27T15:36:48;18.20;;;9.02;;
53281;SDS011;39167;52.794;6.892;2022-11-27T15:39:20;17.55;;;9.75;;
53281;SDS011;39167;52.794;6.892;2022-11-27T15:42:07;18.85;;;10.43;;
53281;SDS011;39167;52.794;6.892;2022-11-27T15:44:34;16.65;;;8.50;;
53281;SDS011;39167;52.794;6.892;2022-11-27T15:47:00;16.92;;;10.23;;
53281;SDS011;39167;52.794;6.892;2022-11-27T15:49:27;16.38;;;9.88;;
53281;SDS011;39167;52.794;6.892;2022-11-27T15:51:54;14.75;;;8.25;;
53281;SDS011;39167;52.794;6.892;2022-11-27T15:54:20;17.45;;;10.00;;
53281;SDS011;39167;52.794;6.892;2022-11-27T15:56:46;16.10;;;9.02;;
53281;SDS011;39167;52.794;6.892;2022-11-27T15:59:12;15.00;;;9.90;;
53281;SDS011;39167;52.794;6.892;2022-11-27T16:01:38;14.00;;;8.85;;
53281;SDS011;39167;52.794;6.892;2022-11-27T16:04:04;12.90;;;8.75;;
53281;SDS011;39167;52.794;6.892;2022-11-27T16:06:30;18.95;;;8.80;;
53281;SDS011;39167;52.794;6.892;2022-11-27T16:08:56;20.80;;;8.85;;
53281;SDS011;39167;52.794;6.892;2022-11-27T16:11:23;18.83;;;9.50;;
53281;SDS011;39167;52.794;6.892;2022-11-27T16:13:50;16.00;;;8.98;;
53281;SDS011;39167;52.794;6.892;2022-11-27T16:16:16;14.60;;;8.77;;
53281;SDS011;39167;52.794;6.892;2022-11-27T16:18:42;13.35;;;8.02;;
53281;SDS011;39167;52.794;6.892;2022-11-27T16:21:09;16.20;;;8.23;;
53281;SDS011;39167;52.794;6.892;2022-11-27T16:23:36;14.30;;;9.27;;
53281;SDS011;39167;52.794;6.892;2022-11-27T16:26:03;15.02;;;8.57;;
53281;SDS011;39167;52.794;6.892;2022-11-27T16:28:29;14.95;;;8.30;;
53281;SDS011;39167;52.794;6.892;2022-11-27T16:30:57;13.95;;;8.95;;
53281;SDS011;39167;52.794;6.892;2022-11-27T16:33:25;13.38;;;8.60;;
53281;SDS011;39167;52.794;6.892;2022-11-27T16:35:55;15.50;;;9.55;;
53281;SDS011;39167;52.794;6.892;2022-11-27T16:38:27;17.23;;;9.55;;
53281;SDS011;39167;52.794;6.892;2022-11-27T16:40:57;15.40;;;9.20;;
53281;SDS011;39167;52.794;6.892;2022-11-27T16:43:27;16.95;;;10.07;;
53281;SDS011;39167;52.794;6.892;2022-11-27T16:45:59;14.35;;;8.60;;
53281;SDS011;39167;52.794;6.892;2022-11-27T16:48:32;17.75;;;9.60;;
53281;SDS011;39167;52.794;6.892;2022-11-27T16:51:06;15.88;;;9.15;;
53281;SDS011;39167;52.794;6.892;2022-11-27T16:53:36;14.85;;;9.30;;